Lake Levels

Lake Updated Head elevation Tail elevation
Buchanan 08/11/2020 6:30 PM 1,016.00 887.12
Inks 08/11/2020 6:30 PM 887.06 825.14
LBJ 08/11/2020 6:30 PM 824.79 736.67
Marble Falls 08/11/2020 6:30 PM 736.30 676.26
Travis 08/11/2020 6:30 PM 665.14 492.13
Austin 08/11/2020 6:30 PM 491.97 428.72
Bastrop 08/11/2020 6:40 PM 448.61 0.00

Upper Basin

Location Updated Stage (ft) Flow (cfs) Bank Full Stage (ft) Flood Stage (ft)
Colorado River at Winchell 08/11/2020 6:40 PM 1.21 0 24.00 26.00
Colorado River near Goldthwaite 08/11/2020 6:40 PM 4.54 0 0.00 0.00
San Saba River at Menard 08/11/2020 6:40 PM 2.57 35 12.00 18.00
San Saba River near Brady 08/11/2020 6:41 PM 2.12 13 16.00 30.00
San Saba River at San Saba 08/11/2020 6:41 PM 2.54 28 20.00 24.00
Colorado River near San Saba 08/11/2020 6:40 PM 1.73 21 25.00 30.00
Lometa 2 WNW 08/11/2020 6:40 PM 1,388.01 0 0.00 0.00
Colorado River at Bend 08/11/2020 6:40 PM 6.09 24 0.00 0.00
Cherokee Creek near Bend 08/11/2020 6:40 PM 3.51 4 0.00 0.00
Lake Buchanan at Cedar Point 08/11/2020 6:40 PM 1,016.01 0 0.00 0.00
Inks Lake at Hwy 29 Bridge 08/11/2020 6:40 PM 887.07 0 0.00 0.00
Lake LBJ at 1431 Bridge 08/11/2020 6:40 PM 824.86 0 0.00 0.00
North Llano River near Roosevelt 08/11/2020 6:41 PM 0.91 0 0.00 0.00
South Llano River at Telegraph 08/11/2020 6:41 PM 2.60 0 0.00 0.00
Llano River near Junction 08/11/2020 6:40 PM 1.48 55 12.00 16.00
Johnson Fork near Junction 08/11/2020 6:40 PM 8.10 10 0.00 0.00
James River near Mason 08/11/2020 6:40 PM 5.44 0 0.00 0.00
Comanche Creek near Mason 08/11/2020 6:40 PM 4.54 0 0.00 0.00
Llano River near Mason 08/11/2020 6:40 PM 0.06 49 6.00 13.00
Willow Creek near Mason 08/11/2020 6:40 PM 4.59 0 0.00 0.00
Hickory Creek near Castell 08/11/2020 6:40 PM 3.27 0 0.00 0.00
San Fernando Creek near Llano 08/11/2020 6:41 PM 4.80 0 0.00 0.00
Johnson Creek near Llano 08/11/2020 6:40 PM 5.01 0 0.00 0.00
Llano River at Llano 08/11/2020 6:40 PM 1.94 36 10.00 10.00
Little Llano River near Llano 08/11/2020 6:40 PM 4.59 0 0.00 0.00
Honey Creek near Kingsland 08/11/2020 6:40 PM 5.52 0 0.00 0.00
Lake LBJ at 2900 Bridge 08/11/2020 6:40 PM 824.83 0 0.00 0.00
Sandy Creek near Willow City 08/11/2020 6:40 PM 1.69 0 0.00 0.00
Sandy Creek near Click 08/11/2020 6:40 PM 941.74 0 0.00 0.00
Sandy Creek near Kingsland 08/11/2020 6:41 PM 4.79 0 8.00 12.00
Walnut Creek near Kingsland 08/11/2020 6:41 PM 4.31 0 0.00 0.00
Lake LBJ at Sandy Harbor 08/11/2020 6:40 PM 824.82 0 0.00 0.00
Backbone Creek at Marble Falls 08/11/2020 6:40 PM 3.51 1 0.00 0.00
Flat Rock Creek near Marble Falls 08/11/2020 6:40 PM 868.05 0 0.00 0.00
Hamilton Creek near Marble Falls 08/11/2020 6:40 PM 5.75 0 0.00 0.00
Pedernales River near Fredericksburg 08/11/2020 6:40 PM 5.19 1 12.00 22.00
South Grape Creek near Luckenbach 08/11/2020 6:40 PM 4.78 0 0.00 0.00
Pedernales River at LBJ Ranch near Stonewall 08/11/2020 6:40 PM 12.09 3 0.00 0.00
North Grape Creek near Johnson City 08/11/2020 6:40 PM 5.21 0 0.00 0.00
Pedernales River near Johnson City 08/11/2020 6:41 PM 10.11 0 13.00 14.00
Miller Creek near Johnson City 08/11/2020 6:40 PM 2.12 0 0.00 0.00
Flat Creek near Pedernales Falls State Park 08/11/2020 6:40 PM 5.25 3 0.00 0.00
Cypress Creek near Cypress Mill 08/11/2020 6:40 PM 5.23 0 0.00 0.00
Cow Creek near Lago Vista 08/11/2020 6:40 PM 4.97 0 0.00 0.00
Big Sandy Creek near Jonestown 08/11/2020 6:40 PM 4.88 0 0.00 0.00

Lower Basin

Location Updated Stage (ft) Flow (cfs) Bank Full Stage (ft) Flood Stage (ft)
Lake Austin below Mansfield Dam 08/11/2020 6:40 PM 492.69 0 0.00 0.00
Lake Austin at Quinlan Park 08/11/2020 6:40 PM 492.91 0 0.00 0.00
Lake Austin at Cortana Shores 08/11/2020 6:40 PM 492.40 0 0.00 0.00
Lake Austin at Bunny Run Farm 08/11/2020 6:40 PM 492.53 0 0.00 0.00
Lady Bird Lake near Longhorn Dam 08/11/2020 6:40 PM 428.63 0 0.00 0.00
Colorado River at Austin 08/11/2020 6:40 PM 13.78 1,536 25.00 33.00
Onion Creek at Buda 08/11/2020 6:40 PM 2.00 0 8.00 15.00
Onion Creek at Hwy 183, Austin 08/11/2020 6:40 PM 4.76 0 15.00 17.00
Gilleland Creek near Manor 08/11/2020 6:40 PM 5.31 9 0.00 0.00
Colorado River near Webberville 08/11/2020 6:40 PM 7.18 0 0.00 0.00
Dry Creek near Elroy 08/11/2020 6:40 PM 5.38 0 0.00 0.00
Colorado River near Utley 08/11/2020 6:40 PM 8.87 900 0.00 0.00
Wilbarger Creek near Elgin 08/11/2020 6:40 PM 4.73 0 0.00 0.00
Big Sandy Creek near Elgin 08/11/2020 6:40 PM 0.51 0 0.00 0.00
Colorado River at Sim Gideon River Plant 08/11/2020 6:40 PM 323.96 0 0.00 0.00
Lake Bastrop at Sim Gideon Power Plant 08/11/2020 6:40 PM 448.61 0 0.00 0.00
Colorado River at Bastrop 08/11/2020 6:40 PM 3.35 922 14.00 23.00
Cedar Creek near Bastrop 08/11/2020 6:40 PM 3.14 0 0.00 0.00
Cedar Creek below Bastrop 08/11/2020 6:40 PM 6.28 0 0.00 0.00
Walnut Creek near Rockne 08/11/2020 6:40 PM -1.00 0 0.00 0.00
Colorado River near Upton 08/11/2020 6:40 PM 8.70 701 0.00 0.00
Colorado River at Smithville 08/11/2020 6:40 PM 1.88 762 10.00 20.00
Colorado River above La Grange 08/11/2020 6:40 PM 3.12 713 19.00 26.00
Buckners Creek near Muldoon 08/11/2020 6:40 PM 2.01 0 0.00 0.00
Lake Fayette at Fayette Power Plant 08/11/2020 6:40 PM 391.20 0 0.00 0.00
Cummins Creek near Frelsburg 08/11/2020 6:40 PM 5.43 0 0.00 27.00
Colorado River at Columbus 08/11/2020 6:40 PM 9.90 665 30.00 34.00
Colorado River at Lakeside River Plant 08/11/2020 6:40 PM 8.02 245 0.00 0.00
Colorado River near Glen Flora 08/11/2020 6:40 PM 75.10 0 0.00 0.00
Colorado River at Wharton 08/11/2020 6:40 PM 7.28 142 20.00 39.00
Colorado River at Bay City 08/11/2020 6:40 PM 2.28 101 23.00 44.00
San Bernard River at East Bernard 08/11/2020 6:40 PM 6.88 21 13.00 17.00
Colorado River at Matagorda 08/11/2020 6:40 PM 0.99 0 4.80 8.80
Blanco River at Blanco 08/11/2020 6:41 PM 12.42 13 0.00 0.00